sensor_id;sensor_type;location;lat;lon;timestamp;temperature;humidity
20845;DHT22;10583;49.084;8.646;2023-04-30T00:02:00;11.60;99.90
20845;DHT22;10583;49.084;8.646;2023-04-30T00:04:27;11.60;99.90
20845;DHT22;10583;49.084;8.646;2023-04-30T00:06:54;11.70;99.90
20845;DHT22;10583;49.084;8.646;2023-04-30T00:09:21;11.60;99.90
20845;DHT22;10583;49.084;8.646;2023-04-30T00:11:47;11.70;99.90
20845;DHT22;10583;49.084;8.646;2023-04-30T00:14:14;11.60;99.90
20845;DHT22;10583;49.084;8.646;2023-04-30T00:16:42;11.60;99.90
20845;DHT22;10583;49.084;8.646;2023-04-30T00:19:09;11.60;99.90
20845;DHT22;10583;49.084;8.646;2023-04-30T00:21:36;11.60;99.90
20845;DHT22;10583;49.084;8.646;2023-04-30T00:24:03;11.50;99.90
20845;DHT22;10583;49.084;8.646;2023-04-30T00:26:30;11.50;99.90
20845;DHT22;10583;49.084;8.646;2023-04-30T00:28:57;11.50;99.90
20845;DHT22;10583;49.084;8.646;2023-04-30T00:31:23;11.50;99.90
20845;DHT22;10583;49.084;8.646;2023-04-30T00:33:51;11.50;99.90
20845;DHT22;10583;49.084;8.646;2023-04-30T00:36:18;11.50;99.90
20845;DHT22;10583;49.084;8.646;2023-04-30T00:38:45;11.50;99.90
20845;DHT22;10583;49.084;8.646;2023-04-30T00:41:12;11.50;99.90
20845;DHT22;10583;49.084;8.646;2023-04-30T00:43:39;11.50;99.90
20845;DHT22;10583;49.084;8.646;2023-04-30T00:46:06;11.40;99.90
20845;DHT22;10583;49.084;8.646;2023-04-30T00:48:32;11.30;99.90
20845;DHT22;10583;49.084;8.646;2023-04-30T00:51:03;11.30;99.90
20845;DHT22;10583;49.084;8.646;2023-04-30T00:53:30;11.40;99.90
20845;DHT22;10583;49.084;8.646;2023-04-30T00:55:58;11.40;99.90
20845;DHT22;10583;49.084;8.646;2023-04-30T00:58:25;11.40;99.90
20845;DHT22;10583;49.084;8.646;2023-04-30T01:00:52;11.40;99.90
20845;DHT22;10583;49.084;8.646;2023-04-30T01:03:19;11.50;99.90
20845;DHT22;10583;49.084;8.646;2023-04-30T01:05:47;11.50;99.90
20845;DHT22;10583;49.084;8.646;2023-04-30T01:08:15;11.50;99.90
20845;DHT22;10583;49.084;8.646;2023-04-30T01:10:47;11.60;99.90
20845;DHT22;10583;49.084;8.646;2023-04-30T01:13:23;11.60;99.90
20845;DHT22;10583;49.084;8.646;2023-04-30T01:15:58;11.60;99.90
20845;DHT22;10583;49.084;8.646;2023-04-30T01:18:30;11.60;99.90
20845;DHT22;10583;49.084;8.646;2023-04-30T01:21:01;11.70;99.90
20845;DHT22;10583;49.084;8.646;2023-04-30T01:23:41;11.70;99.90
20845;DHT22;10583;49.084;8.646;2023-04-30T01:26:15;11.60;99.90
20845;DHT22;10583;49.084;8.646;2023-04-30T01:28:49;11.60;99.90
20845;DHT22;10583;49.084;8.646;2023-04-30T01:31:17;11.70;99.90
20845;DHT22;10583;49.084;8.646;2023-04-30T01:33:45;11.70;99.90
20845;DHT22;10583;49.084;8.646;2023-04-30T01:36:24;11.70;99.90
20845;DHT22;10583;49.084;8.646;2023-04-30T01:39:05;11.70;99.90
20845;DHT22;10583;49.084;8.646;2023-04-30T01:41:38;11.60;99.90
20845;DHT22;10583;49.084;8.646;2023-04-30T01:44:16;11.70;99.90
20845;DHT22;10583;49.084;8.646;2023-04-30T01:46:57;11.60;99.90
20845;DHT22;10583;49.084;8.646;2023-04-30T01:49:31;11.60;99.90
20845;DHT22;10583;49.084;8.646;2023-04-30T01:52:08;11.60;99.90
20845;DHT22;10583;49.084;8.646;2023-04-30T01:54:44;11.60;99.90
20845;DHT22;10583;49.084;8.646;2023-04-30T01:57:17;11.60;99.90
20845;DHT22;10583;49.084;8.646;2023-04-30T01:59:45;11.60;99.90
20845;DHT22;10583;49.084;8.646;2023-04-30T02:02:12;11.70;99.90
20845;DHT22;10583;49.084;8.646;2023-04-30T02:04:40;11.60;99.90
20845;DHT22;10583;49.084;8.646;2023-04-30T02:07:07;11.70;99.90
20845;DHT22;10583;49.084;8.646;2023-04-30T02:09:33;11.70;99.90
20845;DHT22;10583;49.084;8.646;2023-04-30T02:12:00;11.60;99.90
20845;DHT22;10583;49.084;8.646;2023-04-30T02:14:29;11.70;99.90
20845;DHT22;10583;49.084;8.646;2023-04-30T02:16:57;11.70;99.90
20845;DHT22;10583;49.084;8.646;2023-04-30T02:19:24;11.60;99.90
20845;DHT22;10583;49.084;8.646;2023-04-30T02:21:50;11.60;99.90
20845;DHT22;10583;49.084;8.646;2023-04-30T02:24:17;11.60;99.90
20845;DHT22;10583;49.084;8.646;2023-04-30T02:26:44;11.60;99.90
20845;DHT22;10583;49.084;8.646;2023-04-30T02:29:10;11.60;99.90
20845;DHT22;10583;49.084;8.646;2023-04-30T02:31:37;11.60;99.90
20845;DHT22;10583;49.084;8.646;2023-04-30T02:34:05;11.50;99.90
20845;DHT22;10583;49.084;8.646;2023-04-30T02:36:32;11.50;99.90
20845;DHT22;10583;49.084;8.646;2023-04-30T02:39:01;11.50;99.90
20845;DHT22;10583;49.084;8.646;2023-04-30T02:41:27;11.40;99.90
20845;DHT22;10583;49.084;8.646;2023-04-30T02:43:54;11.40;99.90
20845;DHT22;10583;49.084;8.646;2023-04-30T02:46:21;11.30;99.90
20845;DHT22;10583;49.084;8.646;2023-04-30T02:48:48;11.20;99.90
20845;DHT22;10583;49.084;8.646;2023-04-30T02:51:16;11.20;99.90
20845;DHT22;10583;49.084;8.646;2023-04-30T02:53:43;11.10;99.90
20845;DHT22;10583;49.084;8.646;2023-04-30T02:56:10;11.10;99.90
20845;DHT22;10583;49.084;8.646;2023-04-30T02:58:36;11.10;99.90
20845;DHT22;10583;49.084;8.646;2023-04-30T03:01:03;11.10;99.90
20845;DHT22;10583;49.084;8.646;2023-04-30T03:03:30;11.10;99.90
20845;DHT22;10583;49.084;8.646;2023-04-30T03:05:56;11.00;99.90
20845;DHT22;10583;49.084;8.646;2023-04-30T03:08:25;11.10;99.90
20845;DHT22;10583;49.084;8.646;2023-04-30T03:10:52;11.10;99.90
20845;DHT22;10583;49.084;8.646;2023-04-30T03:13:19;11.10;99.90
20845;DHT22;10583;49.084;8.646;2023-04-30T03:15:46;11.00;99.90
20845;DHT22;10583;49.084;8.646;2023-04-30T03:18:12;11.00;99.90
20845;DHT22;10583;49.084;8.646;2023-04-30T03:20:39;11.00;99.90
20845;DHT22;10583;49.084;8.646;2023-04-30T03:23:06;11.00;99.90
20845;DHT22;10583;49.084;8.646;2023-04-30T03:25:34;11.00;99.90
20845;DHT22;10583;49.084;8.646;2023-04-30T03:28:01;11.10;99.90
20845;DHT22;10583;49.084;8.646;2023-04-30T03:30:28;11.00;99.90
20845;DHT22;10583;49.084;8.646;2023-04-30T03:32:54;10.90;99.90
20845;DHT22;10583;49.084;8.646;2023-04-30T03:35:21;10.90;99.90
20845;DHT22;10583;49.084;8.646;2023-04-30T03:37:48;11.00;99.90
20845;DHT22;10583;49.084;8.646;2023-04-30T03:40:14;11.00;99.90
20845;DHT22;10583;49.084;8.646;2023-04-30T03:42:42;11.00;99.90
20845;DHT22;10583;49.084;8.646;2023-04-30T03:45:10;11.00;99.90
20845;DHT22;10583;49.084;8.646;2023-04-30T03:47:36;11.10;99.90
20845;DHT22;10583;49.084;8.646;2023-04-30T03:50:04;11.10;99.90
20845;DHT22;10583;49.084;8.646;2023-04-30T03:52:31;11.20;99.90
20845;DHT22;10583;49.084;8.646;2023-04-30T03:54:58;11.20;99.90
20845;DHT22;10583;49.084;8.646;2023-04-30T03:57:25;11.20;99.90
20845;DHT22;10583;49.084;8.646;2023-04-30T03:59:53;11.10;99.90
20845;DHT22;10583;49.084;8.646;2023-04-30T04:02:21;11.10;99.90
20845;DHT22;10583;49.084;8.646;2023-04-30T04:04:48;11.10;99.90
20845;DHT22;10583;49.084;8.646;2023-04-30T04:07:15;11.10;99.90
20845;DHT22;10583;49.084;8.646;2023-04-30T04:09:42;11.10;99.90
20845;DHT22;10583;49.084;8.646;2023-04-30T04:12:09;11.10;99.90
20845;DHT22;10583;49.084;8.646;2023-04-30T04:14:35;11.10;99.90
20845;DHT22;10583;49.084;8.646;2023-04-30T04:17:04;11.10;99.90
20845;DHT22;10583;49.084;8.646;2023-04-30T04:19:30;11.10;99.90
20845;DHT22;10583;49.084;8.646;2023-04-30T04:21:57;11.10;99.90
20845;DHT22;10583;49.084;8.646;2023-04-30T04:24:24;11.10;99.90
20845;DHT22;10583;49.084;8.646;2023-04-30T04:26:51;11.10;99.90
20845;DHT22;10583;49.084;8.646;2023-04-30T04:29:17;11.10;99.90
20845;DHT22;10583;49.084;8.646;2023-04-30T04:31:44;11.10;99.90
20845;DHT22;10583;49.084;8.646;2023-04-30T04:34:14;11.10;99.90
20845;DHT22;10583;49.084;8.646;2023-04-30T04:36:41;11.20;99.90
20845;DHT22;10583;49.084;8.646;2023-04-30T04:39:08;11.10;99.90
20845;DHT22;10583;49.084;8.646;2023-04-30T04:41:36;11.10;99.90
20845;DHT22;10583;49.084;8.646;2023-04-30T04:44:03;11.20;99.90
20845;DHT22;10583;49.084;8.646;2023-04-30T04:46:30;11.20;99.90
20845;DHT22;10583;49.084;8.646;2023-04-30T04:48:57;11.20;99.90
20845;DHT22;10583;49.084;8.646;2023-04-30T04:51:25;11.20;99.90
20845;DHT22;10583;49.084;8.646;2023-04-30T04:53:52;11.30;99.90
20845;DHT22;10583;49.084;8.646;2023-04-30T04:56:19;11.30;99.90
20845;DHT22;10583;49.084;8.646;2023-04-30T04:58:46;11.30;99.90
20845;DHT22;10583;49.084;8.646;2023-04-30T05:01:13;11.30;99.90
20845;DHT22;10583;49.084;8.646;2023-04-30T05:03:39;11.30;99.90
20845;DHT22;10583;49.084;8.646;2023-04-30T05:06:07;11.30;99.90
20845;DHT22;10583;49.084;8.646;2023-04-30T05:08:36;11.40;99.90
20845;DHT22;10583;49.084;8.646;2023-04-30T05:11:02;11.40;99.90
20845;DHT22;10583;49.084;8.646;2023-04-30T05:13:29;11.40;99.90
20845;DHT22;10583;49.084;8.646;2023-04-30T05:15:56;11.40;99.90
20845;DHT22;10583;49.084;8.646;2023-04-30T05:18:23;11.40;99.90
20845;DHT22;10583;49.084;8.646;2023-04-30T05:20:49;11.40;99.90
20845;DHT22;10583;49.084;8.646;2023-04-30T05:23:16;11.50;99.90
20845;DHT22;10583;49.084;8.646;2023-04-30T05:25:44;11.60;99.90
20845;DHT22;10583;49.084;8.646;2023-04-30T05:28:11;11.50;99.90
20845;DHT22;10583;49.084;8.646;2023-04-30T05:30:38;11.50;99.90
20845;DHT22;10583;49.084;8.646;2023-04-30T05:33:04;11.60;99.90
20845;DHT22;10583;49.084;8.646;2023-04-30T05:35:31;11.60;99.90
20845;DHT22;10583;49.084;8.646;2023-04-30T05:38:00;11.70;99.90
20845;DHT22;10583;49.084;8.646;2023-04-30T05:40:27;11.70;99.90
20845;DHT22;10583;49.084;8.646;2023-04-30T05:42:55;11.70;99.90
20845;DHT22;10583;49.084;8.646;2023-04-30T05:45:21;11.70;99.90
20845;DHT22;10583;49.084;8.646;2023-04-30T05:47:48;11.80;99.90
20845;DHT22;10583;49.084;8.646;2023-04-30T05:50:15;11.90;99.90
20845;DHT22;10583;49.084;8.646;2023-04-30T05:52:42;12.00;99.90
20845;DHT22;10583;49.084;8.646;2023-04-30T05:55:09;12.10;99.90
20845;DHT22;10583;49.084;8.646;2023-04-30T05:57:36;12.20;99.90
20845;DHT22;10583;49.084;8.646;2023-04-30T06:00:06;12.20;99.90
20845;DHT22;10583;49.084;8.646;2023-04-30T06:02:33;12.30;99.90
20845;DHT22;10583;49.084;8.646;2023-04-30T06:04:59;12.40;99.90
20845;DHT22;10583;49.084;8.646;2023-04-30T06:07:27;12.20;99.90
20845;DHT22;10583;49.084;8.646;2023-04-30T06:09:55;12.20;99.90
20845;DHT22;10583;49.084;8.646;2023-04-30T06:12:21;12.20;99.90
20845;DHT22;10583;49.084;8.646;2023-04-30T06:14:48;12.40;99.90
20845;DHT22;10583;49.084;8.646;2023-04-30T06:17:16;12.70;99.90
20845;DHT22;10583;49.084;8.646;2023-04-30T06:19:43;13.10;99.90
20845;DHT22;10583;49.084;8.646;2023-04-30T06:22:10;13.40;99.90
20845;DHT22;10583;49.084;8.646;2023-04-30T06:24:37;13.50;99.90
20845;DHT22;10583;49.084;8.646;2023-04-30T06:27:03;13.60;99.90
20845;DHT22;10583;49.084;8.646;2023-04-30T06:29:30;13.60;99.90
20845;DHT22;10583;49.084;8.646;2023-04-30T06:31:57;13.70;99.90
20845;DHT22;10583;49.084;8.646;2023-04-30T06:34:25;13.70;99.90
20845;DHT22;10583;49.084;8.646;2023-04-30T06:36:52;13.80;99.90
20845;DHT22;10583;49.084;8.646;2023-04-30T06:39:18;13.80;99.90
20845;DHT22;10583;49.084;8.646;2023-04-30T06:41:45;13.80;99.90
20845;DHT22;10583;49.084;8.646;2023-04-30T06:44:12;14.00;99.90
20845;DHT22;10583;49.084;8.646;2023-04-30T06:46:39;14.20;99.90
20845;DHT22;10583;49.084;8.646;2023-04-30T06:49:06;14.30;99.90
20845;DHT22;10583;49.084;8.646;2023-04-30T06:51:34;14.40;99.90
20845;DHT22;10583;49.084;8.646;2023-04-30T06:54:01;14.50;99.90
20845;DHT22;10583;49.084;8.646;2023-04-30T06:56:27;14.50;99.90
20845;DHT22;10583;49.084;8.646;2023-04-30T06:58:54;14.70;99.90
20845;DHT22;10583;49.084;8.646;2023-04-30T07:01:21;14.80;99.90
20845;DHT22;10583;49.084;8.646;2023-04-30T07:03:47;14.90;99.90
20845;DHT22;10583;49.084;8.646;2023-04-30T07:06:15;14.90;99.90
20845;DHT22;10583;49.084;8.646;2023-04-30T07:08:43;14.90;99.90
20845;DHT22;10583;49.084;8.646;2023-04-30T07:11:10;15.10;99.90
20845;DHT22;10583;49.084;8.646;2023-04-30T07:13:37;15.30;99.90
20845;DHT22;10583;49.084;8.646;2023-04-30T07:16:04;15.60;99.90
20845;DHT22;10583;49.084;8.646;2023-04-30T07:18:31;15.70;99.90
20845;DHT22;10583;49.084;8.646;2023-04-30T07:20:58;15.80;99.90
20845;DHT22;10583;49.084;8.646;2023-04-30T07:23:24;15.70;99.90
20845;DHT22;10583;49.084;8.646;2023-04-30T07:25:52;15.80;99.90
20845;DHT22;10583;49.084;8.646;2023-04-30T07:28:19;15.90;99.90
20845;DHT22;10583;49.084;8.646;2023-04-30T07:30:46;15.80;99.90
20845;DHT22;10583;49.084;8.646;2023-04-30T07:33:13;15.80;99.90
20845;DHT22;10583;49.084;8.646;2023-04-30T07:35:39;15.80;99.90
20845;DHT22;10583;49.084;8.646;2023-04-30T07:38:06;15.90;99.90
20845;DHT22;10583;49.084;8.646;2023-04-30T07:40:33;16.10;99.90
20845;DHT22;10583;49.084;8.646;2023-04-30T07:43:01;16.30;99.90
20845;DHT22;10583;49.084;8.646;2023-04-30T07:45:28;16.40;99.90
20845;DHT22;10583;49.084;8.646;2023-04-30T07:47:56;16.40;99.90
20845;DHT22;10583;49.084;8.646;2023-04-30T07:50:22;16.60;99.90
20845;DHT22;10583;49.084;8.646;2023-04-30T07:52:49;16.70;99.90
20845;DHT22;10583;49.084;8.646;2023-04-30T07:55:16;16.70;99.90
20845;DHT22;10583;49.084;8.646;2023-04-30T07:57:42;16.80;99.90
20845;DHT22;10583;49.084;8.646;2023-04-30T08:00:11;16.70;99.90
20845;DHT22;10583;49.084;8.646;2023-04-30T08:02:39;16.90;99.90
20845;DHT22;10583;49.084;8.646;2023-04-30T08:05:08;17.00;99.90
20845;DHT22;10583;49.084;8.646;2023-04-30T08:07:35;17.20;99.90
20845;DHT22;10583;49.084;8.646;2023-04-30T08:10:02;17.30;99.90
20845;DHT22;10583;49.084;8.646;2023-04-30T08:12:29;17.10;99.90
20845;DHT22;10583;49.084;8.646;2023-04-30T08:14:59;17.10;99.90
20845;DHT22;10583;49.084;8.646;2023-04-30T08:17:27;17.20;99.90
20845;DHT22;10583;49.084;8.646;2023-04-30T08:19:57;17.10;99.90
20845;DHT22;10583;49.084;8.646;2023-04-30T08:22:24;17.20;99.90
20845;DHT22;10583;49.084;8.646;2023-04-30T08:24:51;17.50;99.90
20845;DHT22;10583;49.084;8.646;2023-04-30T08:27:19;17.80;99.90
20845;DHT22;10583;49.084;8.646;2023-04-30T08:29:46;18.00;99.90
20845;DHT22;10583;49.084;8.646;2023-04-30T08:32:12;18.00;99.90
20845;DHT22;10583;49.084;8.646;2023-04-30T08:34:41;18.10;99.90
20845;DHT22;10583;49.084;8.646;2023-04-30T08:37:08;18.20;99.90
20845;DHT22;10583;49.084;8.646;2023-04-30T08:39:34;18.20;99.90
20845;DHT22;10583;49.084;8.646;2023-04-30T08:42:03;18.30;99.90
20845;DHT22;10583;49.084;8.646;2023-04-30T08:44:33;18.40;99.90
20845;DHT22;10583;49.084;8.646;2023-04-30T08:47:06;18.80;99.90
20845;DHT22;10583;49.084;8.646;2023-04-30T08:49:34;18.80;99.90
20845;DHT22;10583;49.084;8.646;2023-04-30T08:52:03;18.60;99.90
20845;DHT22;10583;49.084;8.646;2023-04-30T08:54:30;18.70;99.90
20845;DHT22;10583;49.084;8.646;2023-04-30T08:56:57;18.90;99.90
20845;DHT22;10583;49.084;8.646;2023-04-30T08:59:24;18.30;99.90
20845;DHT22;10583;49.084;8.646;2023-04-30T09:01:50;17.90;99.90
20845;DHT22;10583;49.084;8.646;2023-04-30T09:04:17;18.20;99.90
20845;DHT22;10583;49.084;8.646;2023-04-30T09:06:44;18.40;99.90
20845;DHT22;10583;49.084;8.646;2023-04-30T09:09:13;18.30;99.90
20845;DHT22;10583;49.084;8.646;2023-04-30T09:11:41;18.30;99.90
20845;DHT22;10583;49.084;8.646;2023-04-30T09:14:08;18.00;99.90
20845;DHT22;10583;49.084;8.646;2023-04-30T09:16:45;17.50;99.90
20845;DHT22;10583;49.084;8.646;2023-04-30T09:19:23;17.40;99.90
20845;DHT22;10583;49.084;8.646;2023-04-30T09:21:50;17.40;99.90
20845;DHT22;10583;49.084;8.646;2023-04-30T09:24:18;17.60;99.90
20845;DHT22;10583;49.084;8.646;2023-04-30T09:26:45;17.70;99.90
20845;DHT22;10583;49.084;8.646;2023-04-30T09:29:13;17.90;99.90
20845;DHT22;10583;49.084;8.646;2023-04-30T09:31:41;18.20;99.90
20845;DHT22;10583;49.084;8.646;2023-04-30T09:34:08;18.40;99.90
20845;DHT22;10583;49.084;8.646;2023-04-30T09:36:35;18.30;99.90
20845;DHT22;10583;49.084;8.646;2023-04-30T09:39:06;17.90;99.90
20845;DHT22;10583;49.084;8.646;2023-04-30T09:41:34;17.60;99.90
20845;DHT22;10583;49.084;8.646;2023-04-30T09:44:01;17.40;99.90
20845;DHT22;10583;49.084;8.646;2023-04-30T09:46:33;17.30;99.90
20845;DHT22;10583;49.084;8.646;2023-04-30T09:49:04;17.20;99.90
20845;DHT22;10583;49.084;8.646;2023-04-30T09:51:31;17.10;99.90
20845;DHT22;10583;49.084;8.646;2023-04-30T09:54:02;17.00;99.90
20845;DHT22;10583;49.084;8.646;2023-04-30T09:56:30;17.60;99.90
20845;DHT22;10583;49.084;8.646;2023-04-30T09:59:01;18.30;99.90
20845;DHT22;10583;49.084;8.646;2023-04-30T10:01:29;18.50;99.90
20845;DHT22;10583;49.084;8.646;2023-04-30T10:03:57;18.30;99.90
20845;DHT22;10583;49.084;8.646;2023-04-30T10:06:24;18.00;99.90
20845;DHT22;10583;49.084;8.646;2023-04-30T10:08:56;17.60;99.90
20845;DHT22;10583;49.084;8.646;2023-04-30T10:11:27;17.40;99.90
20845;DHT22;10583;49.084;8.646;2023-04-30T10:13:56;17.40;99.90
20845;DHT22;10583;49.084;8.646;2023-04-30T10:16:33;17.50;99.90
20845;DHT22;10583;49.084;8.646;2023-04-30T10:19:07;17.50;99.90
20845;DHT22;10583;49.084;8.646;2023-04-30T10:21:39;17.60;99.90
20845;DHT22;10583;49.084;8.646;2023-04-30T10:24:08;17.40;99.90
20845;DHT22;10583;49.084;8.646;2023-04-30T10:26:36;17.30;99.90
20845;DHT22;10583;49.084;8.646;2023-04-30T10:29:04;17.30;99.90
20845;DHT22;10583;49.084;8.646;2023-04-30T10:31:35;17.40;99.90
20845;DHT22;10583;49.084;8.646;2023-04-30T10:34:09;17.30;99.90
20845;DHT22;10583;49.084;8.646;2023-04-30T10:36:44;17.30;99.90
20845;DHT22;10583;49.084;8.646;2023-04-30T10:39:13;17.30;99.90
20845;DHT22;10583;49.084;8.646;2023-04-30T10:41:44;17.50;99.90
20845;DHT22;10583;49.084;8.646;2023-04-30T10:44:11;17.50;99.90
20845;DHT22;10583;49.084;8.646;2023-04-30T10:46:39;17.40;99.90
20845;DHT22;10583;49.084;8.646;2023-04-30T10:49:06;17.20;99.90
20845;DHT22;10583;49.084;8.646;2023-04-30T10:51:47;17.20;99.90
20845;DHT22;10583;49.084;8.646;2023-04-30T10:54:21;17.40;99.80
20845;DHT22;10583;49.084;8.646;2023-04-30T10:56:50;17.50;99.20
20845;DHT22;10583;49.084;8.646;2023-04-30T10:59:17;17.60;99.10
20845;DHT22;10583;49.084;8.646;2023-04-30T11:01:56;17.40;99.90
20845;DHT22;10583;49.084;8.646;2023-04-30T11:04:24;17.40;99.80
20845;DHT22;10583;49.084;8.646;2023-04-30T11:07:00;17.50;99.30
20845;DHT22;10583;49.084;8.646;2023-04-30T11:09:35;17.50;99.80
20845;DHT22;10583;49.084;8.646;2023-04-30T11:12:04;17.50;99.60
20845;DHT22;10583;49.084;8.646;2023-04-30T11:14:39;17.60;99.90
20845;DHT22;10583;49.084;8.646;2023-04-30T11:17:08;17.70;99.10
20845;DHT22;10583;49.084;8.646;2023-04-30T11:19:40;17.70;99.00
20845;DHT22;10583;49.084;8.646;2023-04-30T11:22:22;18.00;99.00
20845;DHT22;10583;49.084;8.646;2023-04-30T11:24:53;18.20;98.70
20845;DHT22;10583;49.084;8.646;2023-04-30T11:27:21;18.20;98.40
20845;DHT22;10583;49.084;8.646;2023-04-30T11:29:49;18.10;99.00
20845;DHT22;10583;49.084;8.646;2023-04-30T11:32:19;18.30;99.60
20845;DHT22;10583;49.084;8.646;2023-04-30T11:34:46;18.60;98.10
20845;DHT22;10583;49.084;8.646;2023-04-30T11:37:17;18.80;98.30
20845;DHT22;10583;49.084;8.646;2023-04-30T11:39:46;18.90;98.50
20845;DHT22;10583;49.084;8.646;2023-04-30T11:42:15;18.80;97.80
20845;DHT22;10583;49.084;8.646;2023-04-30T11:44:43;18.50;97.40
20845;DHT22;10583;49.084;8.646;2023-04-30T11:47:10;18.40;97.90
20845;DHT22;10583;49.084;8.646;2023-04-30T11:49:38;18.40;98.70
20845;DHT22;10583;49.084;8.646;2023-04-30T11:52:04;18.20;98.40
20845;DHT22;10583;49.084;8.646;2023-04-30T11:54:35;18.00;98.80
20845;DHT22;10583;49.084;8.646;2023-04-30T11:57:04;17.90;97.60
20845;DHT22;10583;49.084;8.646;2023-04-30T11:59:33;17.70;98.50
20845;DHT22;10583;49.084;8.646;2023-04-30T12:02:05;17.70;98.60
20845;DHT22;10583;49.084;8.646;2023-04-30T12:04:32;17.70;99.20
20845;DHT22;10583;49.084;8.646;2023-04-30T12:07:00;17.90;99.70
20845;DHT22;10583;49.084;8.646;2023-04-30T12:09:28;18.00;99.70
20845;DHT22;10583;49.084;8.646;2023-04-30T12:11:54;18.40;99.50
20845;DHT22;10583;49.084;8.646;2023-04-30T12:14:24;18.70;97.30
20845;DHT22;10583;49.084;8.646;2023-04-30T12:16:51;18.70;97.60
20845;DHT22;10583;49.084;8.646;2023-04-30T12:19:19;18.70;96.80
20845;DHT22;10583;49.084;8.646;2023-04-30T12:21:47;18.60;96.90
20845;DHT22;10583;49.084;8.646;2023-04-30T12:24:18;18.50;97.00
20845;DHT22;10583;49.084;8.646;2023-04-30T12:26:45;18.40;96.90
20845;DHT22;10583;49.084;8.646;2023-04-30T12:29:14;18.50;97.80
20845;DHT22;10583;49.084;8.646;2023-04-30T12:31:41;18.80;99.10
20845;DHT22;10583;49.084;8.646;2023-04-30T12:34:10;18.80;96.40
20845;DHT22;10583;49.084;8.646;2023-04-30T12:36:38;18.70;96.90
20845;DHT22;10583;49.084;8.646;2023-04-30T12:39:08;18.50;97.10
20845;DHT22;10583;49.084;8.646;2023-04-30T12:41:38;18.50;97.10
20845;DHT22;10583;49.084;8.646;2023-04-30T12:44:19;18.60;97.20
20845;DHT22;10583;49.084;8.646;2023-04-30T12:46:46;18.80;98.50
20845;DHT22;10583;49.084;8.646;2023-04-30T12:49:24;18.70;98.40
20845;DHT22;10583;49.084;8.646;2023-04-30T12:51:57;18.50;97.70
20845;DHT22;10583;49.084;8.646;2023-04-30T12:54:25;18.40;96.80
20845;DHT22;10583;49.084;8.646;2023-04-30T12:57:02;18.30;97.20
20845;DHT22;10583;49.084;8.646;2023-04-30T12:59:30;18.50;97.60
20845;DHT22;10583;49.084;8.646;2023-04-30T13:02:08;19.00;98.10
20845;DHT22;10583;49.084;8.646;2023-04-30T13:04:35;19.40;96.70
20845;DHT22;10583;49.084;8.646;2023-04-30T13:07:02;19.80;95.50
20845;DHT22;10583;49.084;8.646;2023-04-30T13:09:30;19.60;96.20
20845;DHT22;10583;49.084;8.646;2023-04-30T13:11:56;19.10;96.20
20845;DHT22;10583;49.084;8.646;2023-04-30T13:14:31;18.80;96.80
20845;DHT22;10583;49.084;8.646;2023-04-30T13:16:58;19.10;97.10
20845;DHT22;10583;49.084;8.646;2023-04-30T13:19:27;19.00;95.60
20845;DHT22;10583;49.084;8.646;2023-04-30T13:21:54;18.90;97.40
20845;DHT22;10583;49.084;8.646;2023-04-30T13:24:22;19.00;96.60
20845;DHT22;10583;49.084;8.646;2023-04-30T13:26:48;19.10;96.90
20845;DHT22;10583;49.084;8.646;2023-04-30T13:29:15;19.20;97.50
20845;DHT22;10583;49.084;8.646;2023-04-30T13:31:43;19.20;96.50
20845;DHT22;10583;49.084;8.646;2023-04-30T13:34:10;19.00;95.50
20845;DHT22;10583;49.084;8.646;2023-04-30T13:36:37;18.70;95.30
20845;DHT22;10583;49.084;8.646;2023-04-30T13:39:03;18.50;95.20
20845;DHT22;10583;49.084;8.646;2023-04-30T13:41:31;18.40;96.00
20845;DHT22;10583;49.084;8.646;2023-04-30T13:43:58;18.30;96.70
20845;DHT22;10583;49.084;8.646;2023-04-30T13:46:25;18.40;95.60
20845;DHT22;10583;49.084;8.646;2023-04-30T13:48:53;18.50;95.50
20845;DHT22;10583;49.084;8.646;2023-04-30T13:51:20;18.60;96.90
20845;DHT22;10583;49.084;8.646;2023-04-30T13:53:47;18.60;95.00
20845;DHT22;10583;49.084;8.646;2023-04-30T13:56:13;19.00;96.30
20845;DHT22;10583;49.084;8.646;2023-04-30T13:58:40;19.20;95.30
20845;DHT22;10583;49.084;8.646;2023-04-30T14:01:07;19.20;95.20
20845;DHT22;10583;49.084;8.646;2023-04-30T14:03:34;19.10;96.90
20845;DHT22;10583;49.084;8.646;2023-04-30T14:06:02;19.30;95.60
20845;DHT22;10583;49.084;8.646;2023-04-30T14:08:30;19.30;96.20
20845;DHT22;10583;49.084;8.646;2023-04-30T14:10:58;19.20;94.30
20845;DHT22;10583;49.084;8.646;2023-04-30T14:13:24;19.10;95.20
20845;DHT22;10583;49.084;8.646;2023-04-30T14:15:51;19.00;95.30
20845;DHT22;10583;49.084;8.646;2023-04-30T14:18:19;18.90;94.80
20845;DHT22;10583;49.084;8.646;2023-04-30T14:20:47;18.80;95.40
20845;DHT22;10583;49.084;8.646;2023-04-30T14:23:15;18.70;95.50
20845;DHT22;10583;49.084;8.646;2023-04-30T14:25:41;18.60;96.00
20845;DHT22;10583;49.084;8.646;2023-04-30T14:28:08;18.50;95.20
20845;DHT22;10583;49.084;8.646;2023-04-30T14:30:36;18.30;95.30
20845;DHT22;10583;49.084;8.646;2023-04-30T14:33:02;18.20;94.50
20845;DHT22;10583;49.084;8.646;2023-04-30T14:35:29;18.20;95.00
20845;DHT22;10583;49.084;8.646;2023-04-30T14:37:56;18.20;95.60
20845;DHT22;10583;49.084;8.646;2023-04-30T14:40:24;18.30;96.90
20845;DHT22;10583;49.084;8.646;2023-04-30T14:42:51;18.30;95.70
20845;DHT22;10583;49.084;8.646;2023-04-30T14:45:18;18.40;95.80
20845;DHT22;10583;49.084;8.646;2023-04-30T14:47:44;18.40;96.40
20845;DHT22;10583;49.084;8.646;2023-04-30T14:50:11;18.30;96.30
20845;DHT22;10583;49.084;8.646;2023-04-30T14:52:38;18.20;97.00
20845;DHT22;10583;49.084;8.646;2023-04-30T14:55:07;18.30;97.90
20845;DHT22;10583;49.084;8.646;2023-04-30T14:57:35;18.20;97.30
20845;DHT22;10583;49.084;8.646;2023-04-30T15:00:02;18.20;95.50
20845;DHT22;10583;49.084;8.646;2023-04-30T15:02:31;18.30;96.30
20845;DHT22;10583;49.084;8.646;2023-04-30T15:04:57;18.30;96.00
20845;DHT22;10583;49.084;8.646;2023-04-30T15:07:24;18.40;96.20
20845;DHT22;10583;49.084;8.646;2023-04-30T15:09:51;18.50;96.50
20845;DHT22;10583;49.084;8.646;2023-04-30T15:12:18;18.50;95.60
20845;DHT22;10583;49.084;8.646;2023-04-30T15:14:48;18.30;95.10
20845;DHT22;10583;49.084;8.646;2023-04-30T15:17:14;18.30;94.90
20845;DHT22;10583;49.084;8.646;2023-04-30T15:19:41;18.40;95.40
20845;DHT22;10583;49.084;8.646;2023-04-30T15:22:09;18.30;95.10
20845;DHT22;10583;49.084;8.646;2023-04-30T15:24:35;18.30;95.50
20845;DHT22;10583;49.084;8.646;2023-04-30T15:27:02;18.40;95.70
20845;DHT22;10583;49.084;8.646;2023-04-30T15:29:30;18.40;95.30
20845;DHT22;10583;49.084;8.646;2023-04-30T15:31:58;18.40;96.60
20845;DHT22;10583;49.084;8.646;2023-04-30T15:34:24;18.40;96.70
20845;DHT22;10583;49.084;8.646;2023-04-30T15:36:51;18.40;95.10